sensor_id;sensor_type;location;lat;lon;timestamp;P1;durP1;ratioP1;P2;durP2;ratioP2
56429;SDS011;42332;52.136;20.666;2023-09-08T00:01:16;17.73;;;7.63;;
56429;SDS011;42332;52.136;20.666;2023-09-08T00:03:42;12.40;;;7.43;;
56429;SDS011;42332;52.136;20.666;2023-09-08T00:06:07;13.77;;;7.20;;
56429;SDS011;42332;52.136;20.666;2023-09-08T00:08:33;17.13;;;6.90;;
56429;SDS011;42332;52.136;20.666;2023-09-08T00:10:58;13.70;;;7.05;;
56429;SDS011;42332;52.136;20.666;2023-09-08T00:13:23;15.88;;;7.88;;
56429;SDS011;42332;52.136;20.666;2023-09-08T00:15:49;13.68;;;6.53;;
56429;SDS011;42332;52.136;20.666;2023-09-08T00:18:14;16.13;;;7.00;;
56429;SDS011;42332;52.136;20.666;2023-09-08T00:20:39;17.30;;;7.30;;
56429;SDS011;42332;52.136;20.666;2023-09-08T00:23:06;13.40;;;7.45;;
56429;SDS011;42332;52.136;20.666;2023-09-08T00:25:32;14.50;;;7.35;;
56429;SDS011;42332;52.136;20.666;2023-09-08T00:27:57;15.55;;;7.75;;
56429;SDS011;42332;52.136;20.666;2023-09-08T00:30:23;17.75;;;7.60;;
56429;SDS011;42332;52.136;20.666;2023-09-08T00:32:48;13.30;;;7.22;;
56429;SDS011;42332;52.136;20.666;2023-09-08T00:35:13;14.63;;;7.43;;
56429;SDS011;42332;52.136;20.666;2023-09-08T00:37:39;12.35;;;6.90;;
56429;SDS011;42332;52.136;20.666;2023-09-08T00:40:05;13.10;;;7.80;;
56429;SDS011;42332;52.136;20.666;2023-09-08T00:42:33;15.70;;;7.18;;
56429;SDS011;42332;52.136;20.666;2023-09-08T00:44:58;13.88;;;7.00;;
56429;SDS011;42332;52.136;20.666;2023-09-08T00:47:23;13.25;;;7.78;;
56429;SDS011;42332;52.136;20.666;2023-09-08T00:49:49;14.50;;;7.20;;
56429;SDS011;42332;52.136;20.666;2023-09-08T00:52:16;16.92;;;7.60;;
56429;SDS011;42332;52.136;20.666;2023-09-08T00:54:42;17.70;;;7.88;;
56429;SDS011;42332;52.136;20.666;2023-09-08T00:57:07;13.88;;;7.53;;
56429;SDS011;42332;52.136;20.666;2023-09-08T00:59:34;12.93;;;7.18;;
56429;SDS011;42332;52.136;20.666;2023-09-08T01:02:00;12.88;;;7.00;;
56429;SDS011;42332;52.136;20.666;2023-09-08T01:04:27;14.40;;;8.25;;
56429;SDS011;42332;52.136;20.666;2023-09-08T01:06:52;18.70;;;7.20;;
56429;SDS011;42332;52.136;20.666;2023-09-08T01:09:17;15.40;;;8.02;;
56429;SDS011;42332;52.136;20.666;2023-09-08T01:11:43;16.75;;;6.68;;
56429;SDS011;42332;52.136;20.666;2023-09-08T01:14:11;15.88;;;7.40;;
56429;SDS011;42332;52.136;20.666;2023-09-08T01:16:37;12.98;;;7.35;;
56429;SDS011;42332;52.136;20.666;2023-09-08T01:19:03;16.90;;;8.43;;
56429;SDS011;42332;52.136;20.666;2023-09-08T01:26:52;14.18;;;7.32;;
56429;SDS011;42332;52.136;20.666;2023-09-08T01:29:18;15.43;;;8.48;;
56429;SDS011;42332;52.136;20.666;2023-09-08T01:31:44;16.90;;;7.57;;
56429;SDS011;42332;52.136;20.666;2023-09-08T01:34:09;14.43;;;8.32;;
56429;SDS011;42332;52.136;20.666;2023-09-08T01:36:35;12.38;;;7.63;;
56429;SDS011;42332;52.136;20.666;2023-09-08T01:39:03;14.55;;;8.20;;
56429;SDS011;42332;52.136;20.666;2023-09-08T01:41:29;16.90;;;8.48;;
56429;SDS011;42332;52.136;20.666;2023-09-08T01:43:56;14.93;;;8.65;;
56429;SDS011;42332;52.136;20.666;2023-09-08T01:46:22;15.57;;;8.18;;
56429;SDS011;42332;52.136;20.666;2023-09-08T01:48:48;15.70;;;8.05;;
56429;SDS011;42332;52.136;20.666;2023-09-08T01:51:13;17.08;;;8.43;;
56429;SDS011;42332;52.136;20.666;2023-09-08T01:53:38;16.15;;;8.18;;
56429;SDS011;42332;52.136;20.666;2023-09-08T01:56:04;15.38;;;9.07;;
56429;SDS011;42332;52.136;20.666;2023-09-08T01:58:29;20.85;;;8.73;;
56429;SDS011;42332;52.136;20.666;2023-09-08T02:00:55;15.40;;;8.55;;
56429;SDS011;42332;52.136;20.666;2023-09-08T02:03:25;14.82;;;8.82;;
56429;SDS011;42332;52.136;20.666;2023-09-08T02:05:50;21.00;;;9.15;;
56429;SDS011;42332;52.136;20.666;2023-09-08T02:08:15;16.10;;;8.55;;
56429;SDS011;42332;52.136;20.666;2023-09-08T02:10:41;16.45;;;9.18;;
56429;SDS011;42332;52.136;20.666;2023-09-08T02:13:06;15.05;;;8.63;;
56429;SDS011;42332;52.136;20.666;2023-09-08T02:15:34;15.82;;;9.55;;
56429;SDS011;42332;52.136;20.666;2023-09-08T02:18:01;18.55;;;9.82;;
56429;SDS011;42332;52.136;20.666;2023-09-08T02:20:26;17.52;;;9.18;;
56429;SDS011;42332;52.136;20.666;2023-09-08T02:22:53;16.08;;;9.82;;
56429;SDS011;42332;52.136;20.666;2023-09-08T02:25:19;17.65;;;9.43;;
56429;SDS011;42332;52.136;20.666;2023-09-08T02:27:44;17.25;;;9.50;;
56429;SDS011;42332;52.136;20.666;2023-09-08T02:30:09;17.80;;;10.32;;
56429;SDS011;42332;52.136;20.666;2023-09-08T02:32:35;18.45;;;10.43;;
56429;SDS011;42332;52.136;20.666;2023-09-08T02:35:00;20.30;;;10.93;;
56429;SDS011;42332;52.136;20.666;2023-09-08T02:37:25;26.20;;;10.73;;
56429;SDS011;42332;52.136;20.666;2023-09-08T02:39:51;22.30;;;10.55;;
56429;SDS011;42332;52.136;20.666;2023-09-08T02:42:16;17.10;;;10.07;;
56429;SDS011;42332;52.136;20.666;2023-09-08T02:44:41;19.52;;;9.90;;
56429;SDS011;42332;52.136;20.666;2023-09-08T02:47:08;20.70;;;11.10;;
56429;SDS011;42332;52.136;20.666;2023-09-08T02:49:33;19.38;;;10.48;;
56429;SDS011;42332;52.136;20.666;2023-09-08T02:51:58;15.68;;;8.93;;
56429;SDS011;42332;52.136;20.666;2023-09-08T02:54:24;18.77;;;10.38;;
56429;SDS011;42332;52.136;20.666;2023-09-08T02:56:49;19.42;;;10.75;;
56429;SDS011;42332;52.136;20.666;2023-09-08T02:59:14;16.50;;;10.10;;
56429;SDS011;42332;52.136;20.666;2023-09-08T03:01:40;18.40;;;9.98;;
56429;SDS011;42332;52.136;20.666;2023-09-08T03:04:05;15.80;;;9.52;;
56429;SDS011;42332;52.136;20.666;2023-09-08T03:06:30;17.25;;;9.30;;
56429;SDS011;42332;52.136;20.666;2023-09-08T03:08:56;22.38;;;10.48;;
56429;SDS011;42332;52.136;20.666;2023-09-08T03:11:23;19.17;;;9.35;;
56429;SDS011;42332;52.136;20.666;2023-09-08T03:13:49;18.27;;;10.35;;
56429;SDS011;42332;52.136;20.666;2023-09-08T03:16:14;20.38;;;9.18;;
56429;SDS011;42332;52.136;20.666;2023-09-08T03:18:39;19.83;;;10.15;;
56429;SDS011;42332;52.136;20.666;2023-09-08T03:21:05;17.35;;;9.38;;
56429;SDS011;42332;52.136;20.666;2023-09-08T03:26:06;18.55;;;9.63;;
56429;SDS011;42332;52.136;20.666;2023-09-08T03:28:32;17.45;;;10.23;;
56429;SDS011;42332;52.136;20.666;2023-09-08T03:30:58;24.17;;;10.73;;
56429;SDS011;42332;52.136;20.666;2023-09-08T03:33:23;15.18;;;9.00;;
56429;SDS011;42332;52.136;20.666;2023-09-08T03:35:49;18.23;;;9.95;;
56429;SDS011;42332;52.136;20.666;2023-09-08T03:38:14;19.90;;;10.10;;
56429;SDS011;42332;52.136;20.666;2023-09-08T03:40:39;18.02;;;9.50;;
56429;SDS011;42332;52.136;20.666;2023-09-08T03:43:05;20.67;;;9.13;;
56429;SDS011;42332;52.136;20.666;2023-09-08T03:45:30;18.98;;;9.63;;
56429;SDS011;42332;52.136;20.666;2023-09-08T03:47:56;23.02;;;9.70;;
56429;SDS011;42332;52.136;20.666;2023-09-08T03:50:21;21.77;;;9.95;;
56429;SDS011;42332;52.136;20.666;2023-09-08T03:52:46;16.45;;;9.32;;
56429;SDS011;42332;52.136;20.666;2023-09-08T03:55:12;19.05;;;10.05;;
56429;SDS011;42332;52.136;20.666;2023-09-08T03:57:37;17.83;;;9.98;;
56429;SDS011;42332;52.136;20.666;2023-09-08T04:00:02;19.27;;;9.50;;
56429;SDS011;42332;52.136;20.666;2023-09-08T04:02:30;21.25;;;9.93;;
56429;SDS011;42332;52.136;20.666;2023-09-08T04:04:55;17.23;;;9.98;;
56429;SDS011;42332;52.136;20.666;2023-09-08T04:07:21;16.52;;;9.25;;
56429;SDS011;42332;52.136;20.666;2023-09-08T04:09:46;17.73;;;9.32;;
56429;SDS011;42332;52.136;20.666;2023-09-08T04:12:11;21.27;;;10.23;;
56429;SDS011;42332;52.136;20.666;2023-09-08T04:14:37;17.90;;;9.95;;
56429;SDS011;42332;52.136;20.666;2023-09-08T04:17:02;19.95;;;9.63;;
56429;SDS011;42332;52.136;20.666;2023-09-08T04:19:27;20.42;;;10.27;;
56429;SDS011;42332;52.136;20.666;2023-09-08T04:21:53;16.80;;;10.20;;
56429;SDS011;42332;52.136;20.666;2023-09-08T04:24:18;20.17;;;9.88;;
56429;SDS011;42332;52.136;20.666;2023-09-08T04:26:45;22.48;;;10.73;;
56429;SDS011;42332;52.136;20.666;2023-09-08T04:29:10;15.60;;;9.65;;
56429;SDS011;42332;52.136;20.666;2023-09-08T04:31:35;16.30;;;9.75;;
56429;SDS011;42332;52.136;20.666;2023-09-08T04:34:01;17.20;;;10.27;;
56429;SDS011;42332;52.136;20.666;2023-09-08T04:36:26;18.55;;;9.38;;
56429;SDS011;42332;52.136;20.666;2023-09-08T04:38:51;20.23;;;9.60;;
56429;SDS011;42332;52.136;20.666;2023-09-08T04:41:17;16.92;;;9.77;;
56429;SDS011;42332;52.136;20.666;2023-09-08T04:43:43;16.70;;;8.82;;
56429;SDS011;42332;52.136;20.666;2023-09-08T04:46:08;17.05;;;9.30;;
56429;SDS011;42332;52.136;20.666;2023-09-08T04:48:34;19.83;;;9.63;;
56429;SDS011;42332;52.136;20.666;2023-09-08T04:50:59;19.25;;;9.63;;
56429;SDS011;42332;52.136;20.666;2023-09-08T04:53:25;19.10;;;10.30;;
56429;SDS011;42332;52.136;20.666;2023-09-08T04:55:50;18.52;;;10.52;;
56429;SDS011;42332;52.136;20.666;2023-09-08T04:58:16;17.85;;;10.18;;
56429;SDS011;42332;52.136;20.666;2023-09-08T05:00:41;19.38;;;10.65;;
56429;SDS011;42332;52.136;20.666;2023-09-08T05:03:06;17.15;;;10.70;;
56429;SDS011;42332;52.136;20.666;2023-09-08T05:05:31;20.23;;;10.35;;
56429;SDS011;42332;52.136;20.666;2023-09-08T05:07:57;19.05;;;10.43;;
56429;SDS011;42332;52.136;20.666;2023-09-08T05:10:22;20.95;;;10.45;;
56429;SDS011;42332;52.136;20.666;2023-09-08T05:12:48;18.50;;;11.15;;
56429;SDS011;42332;52.136;20.666;2023-09-08T05:15:14;15.65;;;9.63;;
56429;SDS011;42332;52.136;20.666;2023-09-08T05:17:41;22.83;;;11.30;;
56429;SDS011;42332;52.136;20.666;2023-09-08T05:20:07;23.20;;;11.02;;
56429;SDS011;42332;52.136;20.666;2023-09-08T05:22:32;21.75;;;11.15;;
56429;SDS011;42332;52.136;20.666;2023-09-08T05:24:58;20.45;;;10.25;;
56429;SDS011;42332;52.136;20.666;2023-09-08T05:27:23;15.68;;;9.48;;
56429;SDS011;42332;52.136;20.666;2023-09-08T05:29:49;19.58;;;9.30;;
56429;SDS011;42332;52.136;20.666;2023-09-08T05:32:14;19.60;;;10.52;;
56429;SDS011;42332;52.136;20.666;2023-09-08T05:34:39;20.70;;;10.52;;
56429;SDS011;42332;52.136;20.666;2023-09-08T05:37:05;23.10;;;10.13;;
56429;SDS011;42332;52.136;20.666;2023-09-08T05:39:30;21.02;;;10.35;;
56429;SDS011;42332;52.136;20.666;2023-09-08T05:41:55;17.48;;;9.73;;
56429;SDS011;42332;52.136;20.666;2023-09-08T05:44:21;20.95;;;10.75;;
56429;SDS011;42332;52.136;20.666;2023-09-08T05:46:46;17.80;;;9.73;;
56429;SDS011;42332;52.136;20.666;2023-09-08T05:49:12;22.30;;;10.00;;
56429;SDS011;42332;52.136;20.666;2023-09-08T05:51:39;17.60;;;9.52;;
56429;SDS011;42332;52.136;20.666;2023-09-08T05:54:04;15.57;;;9.30;;
56429;SDS011;42332;52.136;20.666;2023-09-08T05:56:30;26.77;;;9.70;;
56429;SDS011;42332;52.136;20.666;2023-09-08T05:58:56;22.65;;;9.63;;
56429;SDS011;42332;52.136;20.666;2023-09-08T06:01:21;19.40;;;8.77;;
56429;SDS011;42332;52.136;20.666;2023-09-08T06:03:47;16.48;;;8.73;;
56429;SDS011;42332;52.136;20.666;2023-09-08T06:06:12;18.92;;;9.05;;
56429;SDS011;42332;52.136;20.666;2023-09-08T06:08:38;15.75;;;8.23;;
56429;SDS011;42332;52.136;20.666;2023-09-08T06:11:03;14.93;;;8.35;;
56429;SDS011;42332;52.136;20.666;2023-09-08T06:13:28;15.88;;;8.45;;
56429;SDS011;42332;52.136;20.666;2023-09-08T06:15:54;20.02;;;8.05;;
56429;SDS011;42332;52.136;20.666;2023-09-08T06:18:19;15.18;;;7.55;;
56429;SDS011;42332;52.136;20.666;2023-09-08T06:20:48;13.63;;;7.40;;
56429;SDS011;42332;52.136;20.666;2023-09-08T06:23:13;16.55;;;7.40;;
56429;SDS011;42332;52.136;20.666;2023-09-08T06:25:39;16.15;;;8.07;;
56429;SDS011;42332;52.136;20.666;2023-09-08T06:28:04;13.27;;;7.38;;
56429;SDS011;42332;52.136;20.666;2023-09-08T06:30:30;19.38;;;7.82;;
56429;SDS011;42332;52.136;20.666;2023-09-08T06:32:55;17.02;;;7.88;;
56429;SDS011;42332;52.136;20.666;2023-09-08T06:35:21;13.07;;;7.32;;
56429;SDS011;42332;52.136;20.666;2023-09-08T06:37:46;14.90;;;7.30;;
56429;SDS011;42332;52.136;20.666;2023-09-08T06:40:11;17.13;;;7.50;;
56429;SDS011;42332;52.136;20.666;2023-09-08T06:42:37;14.18;;;6.95;;
56429;SDS011;42332;52.136;20.666;2023-09-08T06:45:02;15.18;;;7.07;;
56429;SDS011;42332;52.136;20.666;2023-09-08T06:47:27;13.40;;;8.05;;
56429;SDS011;42332;52.136;20.666;2023-09-08T06:49:53;16.02;;;7.32;;
56429;SDS011;42332;52.136;20.666;2023-09-08T06:52:18;12.70;;;7.00;;
56429;SDS011;42332;52.136;20.666;2023-09-08T06:54:43;16.23;;;7.35;;
56429;SDS011;42332;52.136;20.666;2023-09-08T06:57:11;12.95;;;6.90;;
56429;SDS011;42332;52.136;20.666;2023-09-08T06:59:37;15.00;;;7.05;;
56429;SDS011;42332;52.136;20.666;2023-09-08T07:02:02;16.23;;;6.13;;
56429;SDS011;42332;52.136;20.666;2023-09-08T07:04:27;14.48;;;6.85;;
56429;SDS011;42332;52.136;20.666;2023-09-08T07:06:53;15.98;;;6.40;;
56429;SDS011;42332;52.136;20.666;2023-09-08T07:09:19;15.50;;;6.45;;
56429;SDS011;42332;52.136;20.666;2023-09-08T07:11:45;16.80;;;7.85;;
56429;SDS011;42332;52.136;20.666;2023-09-08T07:14:10;11.60;;;6.38;;
56429;SDS011;42332;52.136;20.666;2023-09-08T07:16:35;14.60;;;6.70;;
56429;SDS011;42332;52.136;20.666;2023-09-08T07:19:01;14.65;;;6.18;;
56429;SDS011;42332;52.136;20.666;2023-09-08T07:21:26;19.80;;;7.00;;
56429;SDS011;42332;52.136;20.666;2023-09-08T07:23:52;11.13;;;6.15;;
56429;SDS011;42332;52.136;20.666;2023-09-08T07:26:18;11.82;;;6.30;;
56429;SDS011;42332;52.136;20.666;2023-09-08T07:28:44;16.48;;;5.97;;
56429;SDS011;42332;52.136;20.666;2023-09-08T07:31:09;14.90;;;6.30;;
56429;SDS011;42332;52.136;20.666;2023-09-08T07:33:35;14.65;;;5.80;;
56429;SDS011;42332;52.136;20.666;2023-09-08T07:36:07;12.10;;;5.72;;
56429;SDS011;42332;52.136;20.666;2023-09-08T07:38:33;11.90;;;5.97;;
56429;SDS011;42332;52.136;20.666;2023-09-08T07:40:59;12.05;;;5.95;;
56429;SDS011;42332;52.136;20.666;2023-09-08T07:43:26;10.73;;;5.88;;
56429;SDS011;42332;52.136;20.666;2023-09-08T07:45:51;12.88;;;5.88;;
56429;SDS011;42332;52.136;20.666;2023-09-08T07:48:17;17.10;;;6.20;;
56429;SDS011;42332;52.136;20.666;2023-09-08T07:50:42;17.25;;;6.50;;
56429;SDS011;42332;52.136;20.666;2023-09-08T07:53:07;10.60;;;5.38;;
56429;SDS011;42332;52.136;20.666;2023-09-08T07:55:33;13.82;;;6.20;;
56429;SDS011;42332;52.136;20.666;2023-09-08T07:57:58;16.50;;;6.80;;
56429;SDS011;42332;52.136;20.666;2023-09-08T08:00:24;22.70;;;6.93;;
56429;SDS011;42332;52.136;20.666;2023-09-08T08:02:50;13.07;;;6.30;;
56429;SDS011;42332;52.136;20.666;2023-09-08T08:05:16;12.05;;;6.18;;
56429;SDS011;42332;52.136;20.666;2023-09-08T08:07:42;10.85;;;6.00;;
56429;SDS011;42332;52.136;20.666;2023-09-08T08:10:08;15.60;;;6.32;;
56429;SDS011;42332;52.136;20.666;2023-09-08T08:12:34;14.45;;;5.75;;
56429;SDS011;42332;52.136;20.666;2023-09-08T08:15:00;12.70;;;6.25;;
56429;SDS011;42332;52.136;20.666;2023-09-08T08:17:25;14.57;;;5.97;;
56429;SDS011;42332;52.136;20.666;2023-09-08T08:19:55;10.27;;;5.57;;
56429;SDS011;42332;52.136;20.666;2023-09-08T08:22:20;15.35;;;6.63;;
56429;SDS011;42332;52.136;20.666;2023-09-08T08:24:46;14.35;;;6.20;;
56429;SDS011;42332;52.136;20.666;2023-09-08T08:27:11;12.52;;;5.85;;
56429;SDS011;42332;52.136;20.666;2023-09-08T08:29:36;9.45;;;5.40;;
56429;SDS011;42332;52.136;20.666;2023-09-08T08:32:02;10.93;;;5.93;;
56429;SDS011;42332;52.136;20.666;2023-09-08T08:34:27;11.05;;;5.50;;
56429;SDS011;42332;52.136;20.666;2023-09-08T08:36:53;11.15;;;5.28;;
56429;SDS011;42332;52.136;20.666;2023-09-08T08:39:18;9.73;;;5.07;;
56429;SDS011;42332;52.136;20.666;2023-09-08T08:41:44;9.68;;;4.95;;
56429;SDS011;42332;52.136;20.666;2023-09-08T08:44:09;15.00;;;5.88;;
56429;SDS011;42332;52.136;20.666;2023-09-08T08:46:36;12.98;;;5.28;;
56429;SDS011;42332;52.136;20.666;2023-09-08T08:49:04;8.95;;;4.60;;
56429;SDS011;42332;52.136;20.666;2023-09-08T08:51:31;9.20;;;5.38;;
56429;SDS011;42332;52.136;20.666;2023-09-08T08:53:56;11.25;;;5.20;;
56429;SDS011;42332;52.136;20.666;2023-09-08T08:56:22;13.98;;;5.45;;
56429;SDS011;42332;52.136;20.666;2023-09-08T08:58:48;11.10;;;4.97;;
56429;SDS011;42332;52.136;20.666;2023-09-08T09:01:14;10.43;;;5.05;;
56429;SDS011;42332;52.136;20.666;2023-09-08T09:03:41;17.73;;;5.75;;
56429;SDS011;42332;52.136;20.666;2023-09-08T09:06:06;11.73;;;5.32;;
56429;SDS011;42332;52.136;20.666;2023-09-08T09:08:32;12.00;;;5.80;;
56429;SDS011;42332;52.136;20.666;2023-09-08T09:10:58;9.23;;;5.13;;
56429;SDS011;42332;52.136;20.666;2023-09-08T09:13:24;12.77;;;6.00;;
56429;SDS011;42332;52.136;20.666;2023-09-08T09:15:50;11.68;;;5.72;;
56429;SDS011;42332;52.136;20.666;2023-09-08T09:18:15;11.43;;;6.38;;
56429;SDS011;42332;52.136;20.666;2023-09-08T09:20:41;10.25;;;5.22;;
56429;SDS011;42332;52.136;20.666;2023-09-08T09:23:26;12.82;;;5.75;;
56429;SDS011;42332;52.136;20.666;2023-09-08T09:25:58;11.65;;;6.25;;
56429;SDS011;42332;52.136;20.666;2023-09-08T09:28:25;17.27;;;5.22;;
56429;SDS011;42332;52.136;20.666;2023-09-08T09:30:51;14.10;;;4.85;;
56429;SDS011;42332;52.136;20.666;2023-09-08T09:33:17;9.73;;;5.18;;
56429;SDS011;42332;52.136;20.666;2023-09-08T09:38:12;11.57;;;5.68;;
56429;SDS011;42332;52.136;20.666;2023-09-08T09:40:38;10.68;;;5.22;;
56429;SDS011;42332;52.136;20.666;2023-09-08T09:43:04;10.63;;;5.60;;
56429;SDS011;42332;52.136;20.666;2023-09-08T09:45:30;10.65;;;4.68;;
56429;SDS011;42332;52.136;20.666;2023-09-08T09:47:56;19.70;;;5.70;;
56429;SDS011;42332;52.136;20.666;2023-09-08T09:50:29;12.38;;;5.07;;
56429;SDS011;42332;52.136;20.666;2023-09-08T09:52:59;10.73;;;4.28;;
56429;SDS011;42332;52.136;20.666;2023-09-08T09:55:32;10.97;;;4.30;;
56429;SDS011;42332;52.136;20.666;2023-09-08T09:57:59;7.95;;;4.20;;
56429;SDS011;42332;52.136;20.666;2023-09-08T10:00:26;8.88;;;4.57;;
56429;SDS011;42332;52.136;20.666;2023-09-08T10:02:52;10.55;;;4.75;;
56429;SDS011;42332;52.136;20.666;2023-09-08T10:05:18;12.48;;;5.07;;
56429;SDS011;42332;52.136;20.666;2023-09-08T10:07:43;10.25;;;4.90;;
56429;SDS011;42332;52.136;20.666;2023-09-08T10:10:12;10.52;;;4.88;;
56429;SDS011;42332;52.136;20.666;2023-09-08T10:12:37;11.93;;;5.25;;
56429;SDS011;42332;52.136;20.666;2023-09-08T10:15:03;9.65;;;4.57;;
56429;SDS011;42332;52.136;20.666;2023-09-08T10:17:30;13.65;;;4.82;;
56429;SDS011;42332;52.136;20.666;2023-09-08T10:19:57;12.13;;;5.18;;
56429;SDS011;42332;52.136;20.666;2023-09-08T10:22:26;7.82;;;4.68;;
56429;SDS011;42332;52.136;20.666;2023-09-08T10:24:54;9.60;;;4.95;;
56429;SDS011;42332;52.136;20.666;2023-09-08T10:27:21;8.05;;;5.07;;
56429;SDS011;42332;52.136;20.666;2023-09-08T10:29:48;9.73;;;5.30;;
56429;SDS011;42332;52.136;20.666;2023-09-08T10:32:14;11.45;;;5.63;;
56429;SDS011;42332;52.136;20.666;2023-09-08T10:34:40;9.48;;;4.78;;
56429;SDS011;42332;52.136;20.666;2023-09-08T10:37:23;9.20;;;5.07;;
56429;SDS011;42332;52.136;20.666;2023-09-08T10:39:50;11.75;;;4.72;;
56429;SDS011;42332;52.136;20.666;2023-09-08T10:47:12;8.13;;;4.47;;
56429;SDS011;42332;52.136;20.666;2023-09-08T10:49:39;10.05;;;5.03;;
56429;SDS011;42332;52.136;20.666;2023-09-08T10:52:07;8.82;;;4.53;;
56429;SDS011;42332;52.136;20.666;2023-09-08T10:54:43;12.85;;;5.25;;
56429;SDS011;42332;52.136;20.666;2023-09-08T10:57:15;13.88;;;4.93;;
56429;SDS011;42332;52.136;20.666;2023-09-08T10:59:51;10.13;;;5.10;;
56429;SDS011;42332;52.136;20.666;2023-09-08T11:05:07;10.32;;;4.55;;
56429;SDS011;42332;52.136;20.666;2023-09-08T11:07:35;12.55;;;4.88;;
56429;SDS011;42332;52.136;20.666;2023-09-08T11:10:01;13.02;;;5.15;;
56429;SDS011;42332;52.136;20.666;2023-09-08T11:12:27;11.35;;;4.22;;
56429;SDS011;42332;52.136;20.666;2023-09-08T11:14:53;18.05;;;5.47;;
56429;SDS011;42332;52.136;20.666;2023-09-08T11:17:19;11.05;;;4.80;;
56429;SDS011;42332;52.136;20.666;2023-09-08T11:19:48;11.65;;;5.78;;
56429;SDS011;42332;52.136;20.666;2023-09-08T11:22:14;8.95;;;5.05;;
56429;SDS011;42332;52.136;20.666;2023-09-08T11:24:44;9.32;;;5.55;;
56429;SDS011;42332;52.136;20.666;2023-09-08T11:27:10;13.55;;;5.25;;
56429;SDS011;42332;52.136;20.666;2023-09-08T11:29:36;12.38;;;5.32;;
56429;SDS011;42332;52.136;20.666;2023-09-08T11:32:02;15.95;;;5.40;;
56429;SDS011;42332;52.136;20.666;2023-09-08T11:34:29;10.88;;;5.22;;
56429;SDS011;42332;52.136;20.666;2023-09-08T11:36:54;10.73;;;5.10;;
56429;SDS011;42332;52.136;20.666;2023-09-08T11:39:22;9.07;;;4.85;;
56429;SDS011;42332;52.136;20.666;2023-09-08T11:41:49;9.77;;;5.15;;
56429;SDS011;42332;52.136;20.666;2023-09-08T11:44:15;9.77;;;4.75;;
56429;SDS011;42332;52.136;20.666;2023-09-08T11:46:41;8.63;;;4.85;;
56429;SDS011;42332;52.136;20.666;2023-09-08T11:49:07;11.57;;;4.90;;
56429;SDS011;42332;52.136;20.666;2023-09-08T11:51:32;16.80;;;5.22;;
56429;SDS011;42332;52.136;20.666;2023-09-08T11:53:57;12.50;;;4.65;;
56429;SDS011;42332;52.136;20.666;2023-09-08T11:56:23;8.90;;;4.57;;
56429;SDS011;42332;52.136;20.666;2023-09-08T11:58:48;8.75;;;4.68;;
56429;SDS011;42332;52.136;20.666;2023-09-08T12:01:14;9.73;;;5.25;;
56429;SDS011;42332;52.136;20.666;2023-09-08T12:03:52;9.15;;;5.13;;
56429;SDS011;42332;52.136;20.666;2023-09-08T12:06:18;11.43;;;5.50;;
56429;SDS011;42332;52.136;20.666;2023-09-08T12:08:43;9.35;;;4.90;;
56429;SDS011;42332;52.136;20.666;2023-09-08T12:11:10;11.45;;;4.78;;
56429;SDS011;42332;52.136;20.666;2023-09-08T12:13:35;10.50;;;4.97;;
56429;SDS011;42332;52.136;20.666;2023-09-08T12:16:01;7.75;;;4.90;;
56429;SDS011;42332;52.136;20.666;2023-09-08T12:18:38;10.38;;;4.47;;
56429;SDS011;42332;52.136;20.666;2023-09-08T12:21:04;6.65;;;4.18;;
56429;SDS011;42332;52.136;20.666;2023-09-08T12:23:30;8.30;;;4.70;;
56429;SDS011;42332;52.136;20.666;2023-09-08T12:25:56;10.50;;;4.05;;
56429;SDS011;42332;52.136;20.666;2023-09-08T12:28:22;13.68;;;4.30;;
56429;SDS011;42332;52.136;20.666;2023-09-08T12:30:50;8.30;;;4.75;;
56429;SDS011;42332;52.136;20.666;2023-09-08T12:33:16;8.38;;;4.25;;
56429;SDS011;42332;52.136;20.666;2023-09-08T12:35:44;11.02;;;4.97;;
56429;SDS011;42332;52.136;20.666;2023-09-08T12:38:11;18.33;;;5.05;;
56429;SDS011;42332;52.136;20.666;2023-09-08T12:40:38;9.43;;;4.60;;
56429;SDS011;42332;52.136;20.666;2023-09-08T12:43:03;10.95;;;4.18;;
56429;SDS011;42332;52.136;20.666;2023-09-08T12:45:29;7.72;;;4.70;;
56429;SDS011;42332;52.136;20.666;2023-09-08T12:47:57;9.57;;;4.40;;
56429;SDS011;42332;52.136;20.666;2023-09-08T12:50:23;8.88;;;4.57;;
56429;SDS011;42332;52.136;20.666;2023-09-08T12:52:49;11.25;;;4.72;;
56429;SDS011;42332;52.136;20.666;2023-09-08T12:55:15;10.25;;;4.75;;
56429;SDS011;42332;52.136;20.666;2023-09-08T12:57:40;7.80;;;4.22;;
56429;SDS011;42332;52.136;20.666;2023-09-08T13:00:06;8.40;;;4.65;;
56429;SDS011;42332;52.136;20.666;2023-09-08T13:02:32;7.55;;;4.43;;
56429;SDS011;42332;52.136;20.666;2023-09-08T13:04:57;9.10;;;4.60;;
56429;SDS011;42332;52.136;20.666;2023-09-08T13:07:23;9.90;;;4.35;;
56429;SDS011;42332;52.136;20.666;2023-09-08T13:09:48;10.15;;;4.85;;
56429;SDS011;42332;52.136;20.666;2023-09-08T13:12:15;8.02;;;4.30;;
56429;SDS011;42332;52.136;20.666;2023-09-08T13:14:40;8.90;;;4.50;;
56429;SDS011;42332;52.136;20.666;2023-09-08T13:17:06;7.05;;;4.20;;
56429;SDS011;42332;52.136;20.666;2023-09-08T13:19:32;13.68;;;4.68;;
56429;SDS011;42332;52.136;20.666;2023-09-08T13:21:57;9.73;;;4.60;;
56429;SDS011;42332;52.136;20.666;2023-09-08T13:24:23;9.43;;;4.50;;
56429;SDS011;42332;52.136;20.666;2023-09-08T13:26:48;9.98;;;4.35;;
56429;SDS011;42332;52.136;20.666;2023-09-08T13:29:14;6.93;;;4.30;;
56429;SDS011;42332;52.136;20.666;2023-09-08T13:31:39;9.13;;;4.68;;
56429;SDS011;42332;52.136;20.666;2023-09-08T13:34:04;9.85;;;4.85;;
56429;SDS011;42332;52.136;20.666;2023-09-08T13:36:30;11.10;;;4.60;;
56429;SDS011;42332;52.136;20.666;2023-09-08T13:38:55;8.65;;;4.43;;
56429;SDS011;42332;52.136;20.666;2023-09-08T13:41:21;8.55;;;3.70;;
56429;SDS011;42332;52.136;20.666;2023-09-08T13:43:46;11.77;;;4.43;;
56429;SDS011;42332;52.136;20.666;2023-09-08T13:46:11;8.32;;;4.38;;
56429;SDS011;42332;52.136;20.666;2023-09-08T13:48:36;9.88;;;4.55;;
56429;SDS011;42332;52.136;20.666;2023-09-08T13:51:02;9.13;;;4.18;;
56429;SDS011;42332;52.136;20.666;2023-09-08T13:53:28;14.40;;;4.53;;
56429;SDS011;42332;52.136;20.666;2023-09-08T13:55:55;9.82;;;4.05;;
56429;SDS011;42332;52.136;20.666;2023-09-08T13:58:21;9.80;;;4.95;;
56429;SDS011;42332;52.136;20.666;2023-09-08T14:00:46;9.80;;;4.57;;
56429;SDS011;42332;52.136;20.666;2023-09-08T14:03:14;9.20;;;4.38;;
56429;SDS011;42332;52.136;20.666;2023-09-08T14:05:39;7.82;;;4.25;;
56429;SDS011;42332;52.136;20.666;2023-09-08T14:08:05;10.05;;;4.22;;
56429;SDS011;42332;52.136;20.666;2023-09-08T14:10:30;7.93;;;4.28;;
56429;SDS011;42332;52.136;20.666;2023-09-08T14:12:55;9.48;;;4.45;;
56429;SDS011;42332;52.136;20.666;2023-09-08T14:15:21;9.65;;;4.10;;
56429;SDS011;42332;52.136;20.666;2023-09-08T14:17:46;13.52;;;4.47;;
56429;SDS011;42332;52.136;20.666;2023-09-08T14:20:11;6.80;;;4.25;;
56429;SDS011;42332;52.136;20.666;2023-09-08T14:22:37;9.15;;;4.70;;
56429;SDS011;42332;52.136;20.666;2023-09-08T14:25:03;9.20;;;4.30;;
56429;SDS011;42332;52.136;20.666;2023-09-08T14:27:29;8.00;;;4.60;;
56429;SDS011;42332;52.136;20.666;2023-09-08T14:29:55;7.85;;;4.22;;
56429;SDS011;42332;52.136;20.666;2023-09-08T14:32:20;8.60;;;4.85;;
56429;SDS011;42332;52.136;20.666;2023-09-08T14:34:45;7.80;;;4.28;;